createdAt,value
2022-12-15T00:00:08.266Z,-0.30
2022-12-15T00:02:53.990Z,-0.30
2022-12-15T00:05:39.803Z,-0.30
2022-12-15T00:08:29.300Z,-0.30
2022-12-15T00:11:15.195Z,-0.30
2022-12-15T00:14:00.607Z,-0.30
2022-12-15T00:16:46.311Z,-0.30
2022-12-15T00:19:31.890Z,-0.30
2022-12-15T00:22:17.882Z,-0.30
2022-12-15T00:25:03.886Z,-0.20
2022-12-15T00:27:49.443Z,-0.20
2022-12-15T00:30:35.111Z,-0.20
2022-12-15T00:33:30.114Z,-0.20
2022-12-15T00:36:18.276Z,-0.20
2022-12-15T00:38:45.981Z,-0.20
2022-12-15T00:41:16.155Z,-0.20
2022-12-15T00:43:43.779Z,-0.20
2022-12-15T00:46:29.748Z,-0.20
2022-12-15T00:48:57.501Z,-0.20
2022-12-15T00:51:46.087Z,-0.20
2022-12-15T00:54:31.689Z,-0.20
2022-12-15T00:57:17.223Z,-0.20
2022-12-15T01:00:02.819Z,-0.20
2022-12-15T01:02:48.750Z,-0.20
2022-12-15T01:05:34.374Z,-0.20
2022-12-15T01:08:19.955Z,-0.20
2022-12-15T01:11:05.747Z,-0.20
2022-12-15T01:13:51.174Z,-0.20
2022-12-15T01:16:36.802Z,-0.20
2022-12-15T01:19:22.395Z,-0.20
2022-12-15T01:21:49.922Z,-0.10
2022-12-15T01:24:17.057Z,-0.20
2022-12-15T01:26:44.068Z,-0.20
2022-12-15T01:29:11.127Z,-0.20
2022-12-15T01:31:38.384Z,-0.20
2022-12-15T01:34:05.580Z,-0.20
2022-12-15T01:36:32.525Z,-0.20
2022-12-15T01:38:59.533Z,-0.10
2022-12-15T01:41:26.821Z,-0.10
2022-12-15T01:43:54.011Z,-0.10
2022-12-15T01:46:23.351Z,-0.10
2022-12-15T01:49:14.925Z,-0.10
2022-12-15T01:51:47.652Z,-0.10
2022-12-15T01:54:23.053Z,-0.10
2022-12-15T01:56:54.412Z,-0.10
2022-12-15T01:59:27.280Z,-0.10
2022-12-15T02:01:54.310Z,-0.10
2022-12-15T02:04:23.415Z,-0.10
2022-12-15T02:06:50.792Z,-0.10
2022-12-15T02:09:19.288Z,-0.10
2022-12-15T02:11:57.661Z,-0.10
2022-12-15T02:14:36.581Z,-0.10
2022-12-15T02:17:10.509Z,-0.10
2022-12-15T02:19:52.685Z,-0.10
2022-12-15T02:22:41.229Z,-0.10
2022-12-15T02:25:23.208Z,-0.10
2022-12-15T02:28:13.498Z,-0.10
2022-12-15T02:31:34.705Z,-0.10
2022-12-15T02:34:43.549Z,-0.10
2022-12-15T02:37:30.521Z,-0.10
2022-12-15T02:39:57.757Z,-0.10
2022-12-15T02:42:26.853Z,0.00
2022-12-15T02:45:04.378Z,0.00
2022-12-15T02:48:00.724Z,0.00
2022-12-15T02:50:54.201Z,0.00
2022-12-15T02:53:33.789Z,0.00
2022-12-15T02:56:19.248Z,0.00
2022-12-15T02:58:54.880Z,0.00
2022-12-15T03:01:30.997Z,0.00
2022-12-15T03:03:59.910Z,0.00
2022-12-15T03:06:28.518Z,0.00
2022-12-15T03:08:55.517Z,0.00
2022-12-15T03:11:22.877Z,0.00
2022-12-15T03:13:50.561Z,0.00
2022-12-15T03:16:17.687Z,0.00
2022-12-15T03:18:44.716Z,0.00
2022-12-15T03:21:11.756Z,0.00
2022-12-15T03:23:38.737Z,0.00
2022-12-15T03:26:06.693Z,0.00
2022-12-15T03:28:34.350Z,0.00
2022-12-15T03:31:01.537Z,-0.10
2022-12-15T03:33:28.849Z,0.00
2022-12-15T03:35:56.201Z,0.00
2022-12-15T03:38:23.263Z,0.00
2022-12-15T03:40:50.372Z,0.00
2022-12-15T03:43:18.490Z,0.00
2022-12-15T03:45:45.571Z,0.00
2022-12-15T03:48:12.639Z,0.00
2022-12-15T03:50:39.740Z,0.00
2022-12-15T03:53:07.015Z,0.00
2022-12-15T03:55:35.373Z,0.00
2022-12-15T03:58:02.938Z,0.00
2022-12-15T04:00:30.235Z,0.00
2022-12-15T04:02:57.372Z,0.00
2022-12-15T04:05:30.591Z,0.00
2022-12-15T04:07:59.356Z,0.00
2022-12-15T04:10:33.545Z,0.00
2022-12-15T04:13:03.867Z,0.00
2022-12-15T04:15:30.903Z,0.00
2022-12-15T04:17:58.527Z,-0.10
2022-12-15T04:20:25.634Z,-0.10
2022-12-15T04:22:52.667Z,-0.10
2022-12-15T04:25:43.717Z,-0.10
2022-12-15T04:28:30.690Z,-0.10
2022-12-15T04:31:26.351Z,-0.10
2022-12-15T04:34:16.936Z,-0.10
2022-12-15T04:37:08.328Z,-0.10
2022-12-15T04:39:56.005Z,-0.10
2022-12-15T04:42:41.557Z,-0.10
2022-12-15T04:45:28.145Z,-0.10
2022-12-15T04:48:13.583Z,-0.10
2022-12-15T04:50:59.208Z,-0.10
2022-12-15T04:53:45.344Z,-0.10
2022-12-15T04:56:33.086Z,-0.10
2022-12-15T04:59:19.719Z,-0.10
2022-12-15T05:02:05.448Z,-0.10
2022-12-15T05:04:51.147Z,-0.10
2022-12-15T05:07:37.122Z,-0.10
2022-12-15T05:10:23.902Z,-0.10
2022-12-15T05:13:09.404Z,-0.10
2022-12-15T05:15:55.092Z,-0.10
2022-12-15T05:18:40.918Z,-0.10
2022-12-15T05:21:26.815Z,-0.10
2022-12-15T05:24:12.912Z,-0.10
2022-12-15T05:26:58.820Z,-0.10
2022-12-15T05:29:44.219Z,-0.10
2022-12-15T05:32:11.851Z,-0.20
2022-12-15T05:34:38.887Z,-0.10
2022-12-15T05:37:08.034Z,-0.10
2022-12-15T05:39:35.342Z,0.00
2022-12-15T05:42:02.358Z,0.00
2022-12-15T05:44:29.589Z,-0.10
2022-12-15T05:46:56.759Z,0.00
2022-12-15T05:49:23.837Z,0.00
2022-12-15T05:51:51.037Z,-0.10
2022-12-15T05:54:21.126Z,0.00
2022-12-15T05:56:50.300Z,0.00
2022-12-15T05:59:22.174Z,0.00
2022-12-15T06:01:52.222Z,0.00
2022-12-15T06:04:19.655Z,0.00
2022-12-15T06:06:46.799Z,0.00
2022-12-15T06:09:13.965Z,0.00
2022-12-15T06:11:41.532Z,0.00
2022-12-15T06:14:09.350Z,0.00
2022-12-15T06:16:42.583Z,0.00
2022-12-15T06:19:16.940Z,0.00
2022-12-15T06:21:43.969Z,0.00
2022-12-15T06:24:11.199Z,0.00
2022-12-15T06:26:40.099Z,0.00
2022-12-15T06:29:09.228Z,0.00
2022-12-15T06:31:37.192Z,0.00
2022-12-15T06:34:09.300Z,0.00
2022-12-15T06:36:36.680Z,0.00
2022-12-15T06:39:06.407Z,0.00
2022-12-15T06:41:33.470Z,0.10
2022-12-15T06:44:00.947Z,0.10
2022-12-15T06:46:30.789Z,0.10
2022-12-15T06:48:58.515Z,0.10
2022-12-15T06:51:26.615Z,0.10
2022-12-15T06:53:56.550Z,0.10
2022-12-15T06:56:33.179Z,0.10
2022-12-15T06:59:02.148Z,0.10
2022-12-15T09:29:00.313Z,1.30
2022-12-15T09:31:33.674Z,1.40
2022-12-15T09:34:01.591Z,1.40
2022-12-15T12:01:12.922Z,2.30
2022-12-15T12:03:58.818Z,2.30
2022-12-15T12:06:34.865Z,2.30
2022-12-15T12:09:24.265Z,2.30
2022-12-15T12:12:19.768Z,2.30
2022-12-15T12:15:25.504Z,2.30
2022-12-15T12:17:56.011Z,2.40
2022-12-15T12:20:42.177Z,2.40
2022-12-15T12:23:27.773Z,2.40
2022-12-15T12:26:24.253Z,2.40
2022-12-15T12:29:22.310Z,2.40
2022-12-15T12:32:04.784Z,2.40
2022-12-15T12:35:30.424Z,2.40
2022-12-15T12:38:03.898Z,2.40
2022-12-15T13:02:50.724Z,2.30
2022-12-15T13:55:29.263Z,2.20
2022-12-15T14:26:53.206Z,2.10
2022-12-15T14:33:31.382Z,2.10
2022-12-15T14:44:57.996Z,2.20
2022-12-15T15:30:06.976Z,2.00
2022-12-15T15:33:23.074Z,2.00
2022-12-15T15:53:26.928Z,2.00
2022-12-15T15:56:22.087Z,1.40
2022-12-15T16:13:52.776Z,2.00
2022-12-15T16:32:08.892Z,2.00
2022-12-15T16:34:42.869Z,2.90
2022-12-15T16:37:54.291Z,1.90
2022-12-15T17:03:41.541Z,1.90
2022-12-15T17:06:24.432Z,1.90
2022-12-15T17:16:11.722Z,1.90
2022-12-15T17:30:36.725Z,1.80
2022-12-15T18:22:11.015Z,0.70
2022-12-15T19:14:55.452Z,1.90
2022-12-15T21:15:35.746Z,1.80
2022-12-15T21:18:51.578Z,1.80
2022-12-15T21:20:56.395Z,1.80
2022-12-15T21:23:29.882Z,1.80
2022-12-15T21:25:58.911Z,1.80
2022-12-15T21:28:26.152Z,1.80
2022-12-15T21:30:53.365Z,1.80
2022-12-15T21:33:20.691Z,1.70
2022-12-15T21:35:48.581Z,1.80
2022-12-15T21:38:27.024Z,1.80
2022-12-15T21:40:59.630Z,1.80
2022-12-15T21:43:28.200Z,1.80
2022-12-15T21:45:55.268Z,1.80
2022-12-15T21:48:47.462Z,1.80
2022-12-15T21:51:18.570Z,1.80
2022-12-15T21:53:48.171Z,1.70
2022-12-15T21:56:19.198Z,1.70
2022-12-15T21:58:49.108Z,1.70
2022-12-15T22:01:20.764Z,1.70
2022-12-15T22:03:53.344Z,1.70
2022-12-15T22:06:27.453Z,1.70
2022-12-15T22:09:00.960Z,1.70
2022-12-15T22:11:30.288Z,1.70
2022-12-15T22:14:01.174Z,1.70
2022-12-15T22:16:32.113Z,1.70
2022-12-15T22:18:59.677Z,1.70
2022-12-15T22:21:27.514Z,1.70
2022-12-15T22:23:54.653Z,1.70
2022-12-15T22:26:25.571Z,1.70
2022-12-15T22:28:55.372Z,1.70
2022-12-15T22:31:23.009Z,1.80
2022-12-15T22:33:50.056Z,1.80
2022-12-15T22:36:17.173Z,1.80
2022-12-15T22:38:44.828Z,1.80
2022-12-15T22:41:19.432Z,1.80
2022-12-15T22:43:50.724Z,1.80
2022-12-15T22:46:18.991Z,1.80
2022-12-15T22:48:50.234Z,1.80
2022-12-15T22:51:19.666Z,1.80
2022-12-15T22:53:46.836Z,1.80
2022-12-15T22:56:37.277Z,1.80
2022-12-15T22:59:10.865Z,1.80
2022-12-15T23:01:37.996Z,1.80
2022-12-15T23:04:06.230Z,1.80
2022-12-15T23:06:33.258Z,1.80
2022-12-15T23:09:00.519Z,1.80
2022-12-15T23:11:39.707Z,1.80
2022-12-15T23:14:09.636Z,1.80
2022-12-15T23:16:38.066Z,1.90
2022-12-15T23:19:07.995Z,1.90
2022-12-15T23:21:36.260Z,1.80
